Time;durP1;ratioP1;P1;durP2;ratioP2;P2;SDS_P1;SDS_P2;PMS_P1;PMS_P2;Temp;Humidity;BMP_temperature;BMP_pressure;BME280_temperature;BME280_humidity;BME280_pressure;Samples;Min_cycle;Max_cycle;Signal;HPM_P1;HPM_P2
2021/09/26 00:01:04;;;;;;;21.27;15.60;;;16.60;99.90;;;;;;5051587;28;20213;-84
2021/09/26 00:03:31;;;;;;;19.60;15.23;;;16.50;99.90;;;;;;5051488;28;20217;-83
2021/09/26 00:05:58;;;;;;;20.95;16.05;;;16.50;99.90;;;;;;5050904;28;20613;-83
2021/09/26 00:08:25;;;;;;;19.92;16.17;;;16.50;99.90;;;;;;5050800;28;20206;-84
2021/09/26 00:10:52;;;;;;;20.23;15.93;;;16.40;99.90;;;;;;5051363;28;20238;-85
2021/09/26 00:13:19;;;;;;;20.00;14.70;;;16.40;99.90;;;;;;5050907;28;20888;-83
2021/09/26 00:15:48;;;;;;;17.33;13.13;;;16.40;99.90;;;;;;5051931;28;20222;-85
2021/09/26 00:18:15;;;;;;;18.65;15.85;;;16.30;99.90;;;;;;5051256;28;20210;-82
2021/09/26 00:20:41;;;;;;;16.08;13.98;;;16.30;99.90;;;;;;5050573;28;20514;-82
2021/09/26 00:23:08;;;;;;;18.48;14.48;;;16.20;99.90;;;;;;5050802;28;20212;-83
2021/09/26 00:25:42;;;;;;;20.50;15.57;;;16.20;99.90;;;;;;5049765;28;20241;-86
2021/09/26 00:28:09;;;;;;;16.48;13.80;;;16.20;99.90;;;;;;5053563;28;20507;-85
2021/09/26 00:30:35;;;;;;;18.20;13.90;;;16.10;99.90;;;;;;5060883;28;20213;-80
2021/09/26 00:33:04;;;;;;;18.10;13.60;;;16.10;99.90;;;;;;5050104;28;20210;-82
2021/09/26 00:35:31;;;;;;;15.50;13.73;;;16.10;99.90;;;;;;5063744;28;20233;-80
2021/09/26 00:37:58;;;;;;;17.88;13.93;;;16.00;99.90;;;;;;5047774;28;20217;-79
2021/09/26 00:40:25;;;;;;;16.88;12.75;;;16.00;99.90;;;;;;5046981;28;20611;-79
2021/09/26 00:42:51;;;;;;;18.92;14.77;;;15.90;99.90;;;;;;5047947;28;20206;-81
2021/09/26 00:45:19;;;;;;;16.92;13.35;;;15.90;99.90;;;;;;5047283;28;20209;-81
2021/09/26 00:47:46;;;;;;;16.73;13.05;;;15.90;99.90;;;;;;5057690;28;20205;-82
2021/09/26 00:50:16;;;;;;;19.40;14.27;;;15.80;99.90;;;;;;5070140;28;20513;-83
2021/09/26 00:52:47;;;;;;;18.40;13.75;;;15.80;99.90;;;;;;5070660;28;20598;-84
2021/09/26 00:55:15;;;;;;;16.38;12.93;;;15.80;99.90;;;;;;5062072;28;20222;-83
2021/09/26 00:57:44;;;;;;;15.95;13.13;;;15.70;99.90;;;;;;5047222;28;20207;-83
2021/09/26 01:00:13;;;;;;;15.93;12.20;;;15.70;99.90;;;;;;5049000;28;20212;-85
2021/09/26 01:02:40;;;;;;;15.57;12.55;;;15.70;99.90;;;;;;5060943;28;20224;-82
2021/09/26 01:05:10;;;;;;;14.48;12.07;;;15.70;99.90;;;;;;5070586;28;20194;-84
2021/09/26 01:07:49;;;;;;;15.57;12.27;;;15.70;99.90;;;;;;5064094;28;20892;-84
2021/09/26 01:10:26;;;;;;;19.45;15.50;;;15.70;99.90;;;;;;5050044;28;20288;-84
2021/09/26 01:13:01;;;;;;;17.27;13.70;;;15.70;99.90;;;;;;5050808;28;20831;-84
2021/09/26 01:15:48;;;;;;;15.63;12.83;;;15.70;99.90;;;;;;5049335;28;20210;-83
2021/09/26 01:18:23;;;;;;;16.83;13.43;;;15.70;99.90;;;;;;5050425;28;20224;-85
2021/09/26 01:20:57;;;;;;;19.23;15.32;;;15.60;99.90;;;;;;5063410;28;20217;-85
2021/09/26 01:24:02;;;;;;;18.33;14.90;;;15.70;99.90;;;;;;5070177;28;20197;-85
2021/09/26 01:26:47;;;;;;;20.43;14.50;;;15.70;99.90;;;;;;5069833;28;20607;-85
2021/09/26 01:29:29;;;;;;;22.50;16.87;;;15.70;99.90;;;;;;5065116;28;20201;-83
2021/09/26 01:32:02;;;;;;;19.17;15.10;;;15.70;99.90;;;;;;5049357;28;20279;-83
2021/09/26 01:34:34;;;;;;;22.53;18.03;;;15.80;99.90;;;;;;5057820;28;20320;-83
2021/09/26 01:37:07;;;;;;;20.50;15.43;;;15.80;99.90;;;;;;5069185;28;20185;-82
2021/09/26 01:39:44;;;;;;;21.60;15.63;;;15.80;99.90;;;;;;5069218;28;20197;-82
2021/09/26 01:42:16;;;;;;;23.00;18.03;;;15.80;99.90;;;;;;5057592;28;20228;-85
2021/09/26 01:44:51;;;;;;;25.95;17.50;;;15.90;99.90;;;;;;5048001;28;20660;-79
2021/09/26 01:47:23;;;;;;;24.93;18.17;;;15.80;99.90;;;;;;5048941;28;20209;-79
2021/09/26 01:49:55;;;;;;;21.60;17.33;;;15.90;99.90;;;;;;5048326;28;20193;-84
2021/09/26 01:52:25;;;;;;;21.90;17.13;;;15.90;99.90;;;;;;5049198;28;20475;-83
2021/09/26 01:54:51;;;;;;;22.73;18.30;;;15.80;99.90;;;;;;5047122;28;20229;-83
2021/09/26 01:57:21;;;;;;;18.13;15.03;;;15.80;99.90;;;;;;5044765;28;20241;-81
2021/09/26 01:59:50;;;;;;;19.00;15.63;;;15.80;99.90;;;;;;5046148;28;20288;-80
2021/09/26 02:02:20;;;;;;;24.27;16.80;;;15.80;99.90;;;;;;5045714;28;20237;-81
2021/09/26 02:04:48;;;;;;;23.13;18.23;;;15.80;99.90;;;;;;5045076;28;20194;-83
2021/09/26 02:07:15;;;;;;;23.70;17.88;;;15.80;99.90;;;;;;5045036;28;20221;-83
2021/09/26 02:09:45;;;;;;;25.13;19.03;;;15.80;99.90;;;;;;5044288;28;20242;-81
2021/09/26 02:12:14;;;;;;;20.98;17.67;;;15.80;99.90;;;;;;5045021;28;20210;-80
2021/09/26 02:14:42;;;;;;;23.33;17.83;;;15.80;99.90;;;;;;5045140;28;20728;-79
2021/09/26 02:17:10;;;;;;;25.65;19.73;;;15.80;99.90;;;;;;5046721;28;20607;-80
2021/09/26 02:19:40;;;;;;;22.13;18.80;;;15.80;99.90;;;;;;5045832;28;20201;-85
2021/09/26 02:22:08;;;;;;;25.13;18.70;;;15.80;99.90;;;;;;5046336;28;20217;-81
2021/09/26 02:24:36;;;;;;;26.98;20.02;;;15.80;99.90;;;;;;5047089;28;20249;-82
2021/09/26 02:27:04;;;;;;;28.80;20.67;;;15.80;99.90;;;;;;5045615;28;20201;-79
2021/09/26 02:29:32;;;;;;;27.95;21.58;;;15.80;99.90;;;;;;5046516;28;20563;-85
2021/09/26 02:31:59;;;;;;;26.43;21.23;;;15.80;99.90;;;;;;5047621;28;20590;-82
2021/09/26 02:34:26;;;;;;;30.27;21.15;;;15.80;99.90;;;;;;5048101;28;20209;-82
2021/09/26 02:36:54;;;;;;;31.52;21.98;;;15.80;99.90;;;;;;5068008;28;20608;-82
2021/09/26 02:39:21;;;;;;;27.67;21.47;;;15.90;99.90;;;;;;5049556;28;20202;-82
2021/09/26 02:41:55;;;;;;;33.63;22.97;;;15.90;99.90;;;;;;5047426;28;20205;-81
2021/09/26 02:44:27;;;;;;;23.03;19.73;;;15.90;99.90;;;;;;5047355;28;20209;-80
2021/09/26 02:47:02;;;;;;;24.73;19.50;;;15.90;99.90;;;;;;5048742;28;20202;-79
2021/09/26 02:49:29;;;;;;;26.60;21.42;;;15.90;99.90;;;;;;5046655;28;20589;-83
2021/09/26 02:51:59;;;;;;;22.98;18.35;;;15.90;99.90;;;;;;5053586;28;20208;-79
2021/09/26 02:54:26;;;;;;;27.17;20.13;;;15.90;99.90;;;;;;5065595;28;20628;-79
2021/09/26 02:56:53;;;;;;;23.07;18.10;;;15.90;99.90;;;;;;5066214;28;20493;-82
2021/09/26 02:59:22;;;;;;;28.17;20.90;;;15.90;99.90;;;;;;5060577;28;20210;-81
2021/09/26 03:01:50;;;;;;;26.43;20.13;;;15.80;99.90;;;;;;5047511;28;20238;-83
2021/09/26 03:04:17;;;;;;;27.70;21.40;;;15.80;99.90;;;;;;5046845;28;20198;-82
2021/09/26 03:06:44;;;;;;;24.37;19.63;;;15.80;99.90;;;;;;5046683;28;20248;-81
2021/09/26 03:09:13;;;;;;;27.25;21.98;;;15.80;99.90;;;;;;5046014;28;20327;-82
2021/09/26 03:11:40;;;;;;;29.92;22.73;;;15.80;99.90;;;;;;5047900;28;20220;-84
2021/09/26 03:14:07;;;;;;;26.03;20.70;;;15.70;99.90;;;;;;5047450;28;20810;-81
2021/09/26 03:16:34;;;;;;;22.23;18.53;;;15.70;99.90;;;;;;5047329;28;20230;-80
2021/09/26 03:19:01;;;;;;;24.37;17.43;;;15.70;99.90;;;;;;5048590;28;20194;-82
2021/09/26 03:21:28;;;;;;;27.57;19.90;;;15.60;99.90;;;;;;5052373;28;20213;-80
2021/09/26 03:23:55;;;;;;;24.80;19.80;;;15.60;99.90;;;;;;5051602;28;20569;-81
2021/09/26 03:26:23;;;;;;;27.43;20.17;;;15.60;99.90;;;;;;5050479;28;20202;-79
2021/09/26 03:28:51;;;;;;;25.80;19.67;;;15.60;99.90;;;;;;5049354;28;20206;-81
2021/09/26 03:31:19;;;;;;;23.90;18.33;;;15.60;99.90;;;;;;5050011;28;20213;-82
2021/09/26 03:33:46;;;;;;;19.23;15.83;;;15.60;99.90;;;;;;5058648;28;20217;-80
2021/09/26 03:36:13;;;;;;;22.40;17.17;;;15.50;99.90;;;;;;5070794;28;20221;-80
2021/09/26 03:38:40;;;;;;;21.00;15.80;;;15.50;99.90;;;;;;5072695;28;20205;-82
2021/09/26 03:41:06;;;;;;;19.67;16.17;;;15.40;99.90;;;;;;5075054;28;20194;-83
2021/09/26 03:43:35;;;;;;;22.20;17.20;;;15.40;99.90;;;;;;5061562;28;20210;-83
2021/09/26 03:46:01;;;;;;;22.60;17.50;;;15.40;99.90;;;;;;5057830;28;20208;-81
2021/09/26 03:48:28;;;;;;;22.73;16.80;;;15.40;99.90;;;;;;5056097;28;20198;-81
2021/09/26 03:50:55;;;;;;;20.53;16.13;;;15.40;99.90;;;;;;5053920;28;20580;-81
2021/09/26 03:53:22;;;;;;;21.80;16.77;;;15.40;99.90;;;;;;5051432;28;20201;-81
2021/09/26 03:55:49;;;;;;;24.30;18.67;;;15.30;99.90;;;;;;5049640;28;20225;-83
2021/09/26 03:58:16;;;;;;;24.23;19.37;;;15.30;99.90;;;;;;5049239;28;20517;-81
2021/09/26 04:00:44;;;;;;;25.70;19.33;;;15.30;99.90;;;;;;5049885;28;20521;-84
2021/09/26 04:03:11;;;;;;;23.37;18.90;;;15.30;99.90;;;;;;5050476;28;20209;-83
2021/09/26 04:05:38;;;;;;;23.87;18.43;;;15.40;99.90;;;;;;5052884;28;20207;-83
2021/09/26 04:08:05;;;;;;;26.13;19.17;;;15.40;99.90;;;;;;5069059;28;20201;-80
2021/09/26 04:10:32;;;;;;;23.07;17.30;;;15.40;99.90;;;;;;5068881;28;20236;-84
2021/09/26 04:12:59;;;;;;;19.73;15.67;;;15.40;99.90;;;;;;5069380;28;20198;-79
2021/09/26 04:15:26;;;;;;;17.03;14.13;;;15.40;99.90;;;;;;5049979;28;20245;-79
2021/09/26 04:17:54;;;;;;;24.47;18.73;;;15.40;99.90;;;;;;5047931;28;20465;-78
2021/09/26 04:20:21;;;;;;;26.70;19.37;;;15.40;99.90;;;;;;5047701;28;21083;-81
2021/09/26 04:22:48;;;;;;;24.58;18.52;;;15.40;99.90;;;;;;5048206;28;20209;-83
2021/09/26 04:25:15;;;;;;;21.17;16.92;;;15.50;99.90;;;;;;5048031;28;20520;-85
2021/09/26 04:27:42;;;;;;;20.03;16.10;;;15.50;99.90;;;;;;5048470;28;20194;-83
2021/09/26 04:30:10;;;;;;;33.90;23.50;;;15.50;99.90;;;;;;5047943;28;20217;-83
2021/09/26 04:32:37;;;;;;;32.88;24.20;;;15.50;99.90;;;;;;5068049;23;20244;-81
2021/09/26 04:35:07;;;;;;;29.20;22.63;;;15.50;99.90;;;;;;5068946;28;20212;-82
2021/09/26 04:37:33;;;;;;;26.33;20.52;;;15.50;99.90;;;;;;5056040;28;20226;-79
2021/09/26 04:40:00;;;;;;;28.53;22.40;;;15.60;99.90;;;;;;5048085;28;20202;-84
2021/09/26 04:42:28;;;;;;;26.33;19.53;;;15.60;99.90;;;;;;5048188;28;20228;-80
2021/09/26 04:44:54;;;;;;;23.13;18.07;;;15.60;99.90;;;;;;5048253;28;20472;-80
2021/09/26 04:47:21;;;;;;;29.27;21.45;;;15.60;99.90;;;;;;5047597;28;20198;-80
2021/09/26 04:49:48;;;;;;;29.45;22.88;;;15.60;99.90;;;;;;5048467;28;20206;-86
2021/09/26 04:52:16;;;;;;;28.33;21.27;;;15.60;99.90;;;;;;5047781;28;20194;-82
2021/09/26 04:54:43;;;;;;;30.42;22.92;;;15.60;99.90;;;;;;5045887;28;20248;-82
2021/09/26 04:57:10;;;;;;;28.87;21.47;;;15.60;99.90;;;;;;5047112;28;20275;-82
2021/09/26 04:59:37;;;;;;;30.48;23.13;;;15.70;99.90;;;;;;5046393;28;20210;-86
2021/09/26 05:02:04;;;;;;;29.57;22.53;;;15.60;99.90;;;;;;5046656;28;20217;-84
2021/09/26 05:04:31;;;;;;;30.55;24.05;;;15.60;99.90;;;;;;5047002;28;20198;-81
2021/09/26 05:06:58;;;;;;;28.10;22.27;;;15.60;99.90;;;;;;5046151;28;20202;-79
2021/09/26 05:09:26;;;;;;;31.13;23.57;;;15.60;99.90;;;;;;5048133;28;20198;-81
2021/09/26 05:11:54;;;;;;;31.73;23.90;;;15.60;99.90;;;;;;5046771;28;20206;-81
2021/09/26 05:14:21;;;;;;;29.53;22.27;;;15.60;99.90;;;;;;5048694;28;20268;-82
2021/09/26 05:16:48;;;;;;;31.27;21.47;;;15.70;99.90;;;;;;5048767;28;20221;-79
2021/09/26 05:19:15;;;;;;;31.23;23.23;;;15.60;99.90;;;;;;5062850;28;20213;-79
2021/09/26 05:21:42;;;;;;;30.67;23.17;;;15.60;99.90;;;;;;5066019;28;20201;-82
2021/09/26 05:24:09;;;;;;;30.57;24.00;;;15.60;99.90;;;;;;5067581;28;20930;-82
2021/09/26 05:26:38;;;;;;;29.60;22.43;;;15.70;99.90;;;;;;5057865;28;20523;-83
2021/09/26 05:29:06;;;;;;;33.10;24.53;;;15.70;99.90;;;;;;5026449;28;20197;-81
2021/09/26 05:31:33;;;;;;;29.88;22.75;;;15.70;99.90;;;;;;5026574;28;20329;-81
2021/09/26 05:34:00;;;;;;;32.88;23.83;;;15.70;99.90;;;;;;5027188;28;20207;-81
2021/09/26 05:36:27;;;;;;;32.90;23.58;;;15.70;99.90;;;;;;5045700;28;20257;-82
2021/09/26 05:38:54;;;;;;;26.88;20.17;;;15.70;99.90;;;;;;5036230;28;20214;-79
2021/09/26 05:41:21;;;;;;;28.07;21.80;;;15.70;99.90;;;;;;5026785;28;20214;-82
2021/09/26 05:43:49;;;;;;;29.80;21.08;;;15.70;99.90;;;;;;5025628;28;20210;-80
2021/09/26 05:46:16;;;;;;;33.63;24.70;;;15.70;99.90;;;;;;5045297;28;20590;-83
2021/09/26 05:48:43;;;;;;;30.17;22.58;;;15.70;99.90;;;;;;5046505;28;20229;-81
2021/09/26 05:51:10;;;;;;;25.88;20.02;;;15.70;99.90;;;;;;5048528;28;20216;-85
2021/09/26 05:53:37;;;;;;;30.92;24.15;;;15.70;99.90;;;;;;5045942;28;20202;-82
2021/09/26 05:56:05;;;;;;;26.98;22.58;;;15.70;99.90;;;;;;5045710;28;20839;-82
2021/09/26 05:58:31;;;;;;;30.03;22.30;;;15.70;99.90;;;;;;5051989;28;20209;-79
2021/09/26 06:01:00;;;;;;;32.63;22.90;;;15.70;99.90;;;;;;5066009;28;20205;-79
2021/09/26 06:03:27;;;;;;;29.83;23.87;;;15.80;99.90;;;;;;5065479;28;20208;-81
2021/09/26 06:05:54;;;;;;;29.02;22.67;;;15.80;99.90;;;;;;5065740;28;20208;-80
2021/09/26 06:08:26;;;;;;;29.83;23.70;;;15.80;99.90;;;;;;5055008;28;20210;-79
2021/09/26 06:10:53;;;;;;;31.30;23.83;;;15.80;99.90;;;;;;5044862;28;20667;-82
2021/09/26 06:13:20;;;;;;;30.97;24.20;;;15.80;99.90;;;;;;5045256;28;20213;-82
2021/09/26 06:15:47;;;;;;;29.33;22.93;;;15.80;99.90;;;;;;5045803;28;20214;-82
2021/09/26 06:18:15;;;;;;;35.97;23.60;;;15.80;99.90;;;;;;5045377;28;20201;-87
2021/09/26 06:20:42;;;;;;;31.13;24.35;;;15.80;99.90;;;;;;5044174;28;20308;-85
2021/09/26 06:23:09;;;;;;;32.37;23.87;;;15.80;99.90;;;;;;5043902;28;20202;-81
2021/09/26 06:25:36;;;;;;;35.28;25.48;;;15.80;99.90;;;;;;5047664;28;20222;-86
2021/09/26 06:28:02;;;;;;;37.37;25.20;;;15.80;99.90;;;;;;5045697;28;20194;-83
2021/09/26 06:30:29;;;;;;;35.07;24.60;;;15.90;99.90;;;;;;5031945;28;20218;-81
2021/09/26 06:32:56;;;;;;;32.63;25.17;;;15.90;99.90;;;;;;5025745;28;20292;-85
2021/09/26 06:35:24;;;;;;;30.67;23.60;;;15.90;99.90;;;;;;5026400;28;20209;-85
2021/09/26 06:37:51;;;;;;;30.70;23.83;;;16.00;99.90;;;;;;5026335;28;20226;-82
2021/09/26 06:40:18;;;;;;;32.70;25.77;;;16.00;99.90;;;;;;5026282;28;20207;-86
2021/09/26 06:42:45;;;;;;;30.43;24.77;;;16.00;99.90;;;;;;5040646;28;20210;-87
2021/09/26 06:45:12;;;;;;;30.97;24.87;;;16.00;99.90;;;;;;5043762;28;20202;-84
2021/09/26 06:47:39;;;;;;;32.63;24.53;;;16.00;99.90;;;;;;5027577;28;20206;-83
2021/09/26 06:50:08;;;;;;;30.30;23.73;;;16.10;99.90;;;;;;5026454;28;20221;-87
2021/09/26 06:52:36;;;;;;;28.75;21.42;;;16.10;99.90;;;;;;5027484;28;20204;-83
2021/09/26 06:55:04;;;;;;;33.55;24.63;;;16.10;99.90;;;;;;5042396;28;20216;-83
2021/09/26 06:57:31;;;;;;;33.78;27.40;;;16.10;99.90;;;;;;5049984;28;20240;-82
2021/09/26 06:59:58;;;;;;;34.58;25.20;;;16.10;99.90;;;;;;5049921;28;20201;-81
2021/09/26 07:02:25;;;;;;;33.17;24.88;;;16.20;99.90;;;;;;5041084;28;20207;-84
2021/09/26 07:04:53;;;;;;;31.42;23.77;;;16.20;99.90;;;;;;5030848;28;20590;-87
2021/09/26 07:07:22;;;;;;;29.15;23.58;;;16.20;99.90;;;;;;5048901;28;20214;-86
2021/09/26 07:09:54;;;;;;;32.10;26.40;;;16.20;99.90;;;;;;5055073;28;20213;-81
2021/09/26 07:12:21;;;;;;;31.03;24.70;;;16.20;99.90;;;;;;5069830;28;20208;-85
2021/09/26 07:14:51;;;;;;;30.70;24.13;;;16.20;99.90;;;;;;5059154;28;20213;-82
2021/09/26 07:17:19;;;;;;;32.08;22.85;;;16.20;99.90;;;;;;5048996;28;20226;-82
2021/09/26 07:19:46;;;;;;;33.15;26.10;;;16.30;99.90;;;;;;5049716;28;20206;-83
2021/09/26 07:25:49;;;;;;;32.00;25.65;;;16.30;99.90;;;;;;5454718;22;20333;-80
2021/09/26 07:28:16;;;;;;;34.15;25.17;;;16.30;99.90;;;;;;5071096;28;20204;-84
2021/09/26 07:30:43;;;;;;;36.70;26.57;;;16.40;99.90;;;;;;5070298;28;20204;-83
2021/09/26 07:33:10;;;;;;;33.55;26.92;;;16.40;99.90;;;;;;5069189;28;20213;-88
2021/09/26 07:35:37;;;;;;;36.30;27.98;;;16.50;99.90;;;;;;5069545;28;20205;-87
2021/09/26 07:38:04;;;;;;;34.83;25.97;;;16.50;99.90;;;;;;5069496;28;20298;-81
2021/09/26 07:40:30;;;;;;;26.80;22.47;;;16.50;99.90;;;;;;5048681;28;20296;-82
2021/09/26 07:49:55;;;;;;;36.00;26.35;;;16.60;99.90;;;;;;5004496;28;20203;-84
2021/09/26 07:52:22;;;;;;;39.60;24.10;;;16.70;99.90;;;;;;5066968;28;20470;-85
2021/09/26 07:54:49;;;;;;;29.05;23.08;;;16.80;99.90;;;;;;5071938;28;20206;-82
2021/09/26 07:57:19;;;;;;;27.95;23.30;;;16.90;99.90;;;;;;5069818;28;20229;-85
2021/09/26 07:59:46;;;;;;;32.55;27.23;;;17.00;99.90;;;;;;5062235;28;20236;-84
2021/09/26 08:02:13;;;;;;;29.60;25.05;;;17.00;99.90;;;;;;5048673;28;20193;-83
2021/09/26 08:04:40;;;;;;;33.05;26.15;;;17.10;99.90;;;;;;5067541;28;20209;-85
2021/09/26 08:07:08;;;;;;;27.85;23.15;;;17.10;99.90;;;;;;5066356;28;20208;-85
2021/09/26 08:09:35;;;;;;;30.30;24.10;;;17.20;99.90;;;;;;5067869;28;20213;-83
2021/09/26 08:12:02;;;;;;;26.83;23.77;;;17.30;99.90;;;;;;5088884;28;20212;-82
2021/09/26 08:14:29;;;;;;;33.63;25.33;;;17.30;99.90;;;;;;5088545;28;20204;-81
2021/09/26 08:16:56;;;;;;;25.85;22.02;;;17.30;99.90;;;;;;5068088;28;20233;-82
2021/09/26 08:19:22;;;;;;;26.13;21.50;;;17.40;99.90;;;;;;5068092;28;20216;-81
2021/09/26 08:21:50;;;;;;;22.65;18.27;;;17.50;99.90;;;;;;5067920;28;20644;-82
2021/09/26 08:24:18;;;;;;;22.85;19.25;;;17.60;99.90;;;;;;5059408;28;20781;-88
2021/09/26 08:26:45;;;;;;;19.70;17.17;;;17.70;99.90;;;;;;5049105;28;20240;-84
2021/09/26 08:29:12;;;;;;;17.63;15.73;;;17.80;99.90;;;;;;5048230;28;20764;-82
2021/09/26 08:31:39;;;;;;;22.38;18.30;;;17.80;99.90;;;;;;5067471;28;20220;-88
2021/09/26 08:34:06;;;;;;;17.40;15.55;;;17.90;99.90;;;;;;5068198;28;20209;-87
2021/09/26 08:36:32;;;;;;;15.10;13.60;;;18.00;99.90;;;;;;5052218;28;20225;-82
2021/09/26 08:38:59;;;;;;;25.30;19.75;;;18.10;99.90;;;;;;5048025;28;20212;-81
2021/09/26 08:41:27;;;;;;;25.67;19.80;;;18.20;99.90;;;;;;5048898;28;20202;-83
2021/09/26 08:43:55;;;;;;;22.55;19.95;;;18.30;99.90;;;;;;5059413;28;20212;-81
2021/09/26 08:46:23;;;;;;;20.48;18.25;;;18.50;99.90;;;;;;5069587;28;20508;-84
2021/09/26 08:48:50;;;;;;;18.65;15.80;;;18.60;99.90;;;;;;5070402;28;20205;-87
2021/09/26 08:51:18;;;;;;;19.17;17.00;;;18.80;99.90;;;;;;5070548;28;20192;-87
2021/09/26 08:53:45;;;;;;;16.20;14.48;;;18.90;99.90;;;;;;5056165;28;20214;-86
2021/09/26 08:56:12;;;;;;;16.55;14.07;;;19.10;99.90;;;;;;5049962;28;20205;-88
2021/09/26 08:58:40;;;;;;;15.85;14.18;;;19.20;99.90;;;;;;5050645;28;20214;-89
2021/09/26 09:01:12;;;;;;;14.48;12.68;;;19.30;99.90;;;;;;5091162;28;20196;-89
2021/09/26 09:03:39;;;;;;;17.05;13.23;;;19.50;99.90;;;;;;5070354;28;20205;-86
2021/09/26 09:06:06;;;;;;;13.98;12.00;;;19.60;99.90;;;;;;5069571;28;20304;-82
2021/09/26 09:08:40;;;;;;;19.40;15.88;;;19.70;99.90;;;;;;5076803;28;20199;-84
2021/09/26 09:11:06;;;;;;;15.43;12.93;;;19.80;99.90;;;;;;5051098;28;20213;-87
2021/09/26 09:13:36;;;;;;;14.55;12.82;;;19.90;99.90;;;;;;5050616;28;20970;-86
2021/09/26 09:16:06;;;;;;;13.68;11.98;;;20.10;99.90;;;;;;5075952;28;20208;-87
2021/09/26 09:18:41;;;;;;;14.48;12.32;;;20.20;99.90;;;;;;5090989;28;20228;-83
2021/09/26 09:21:19;;;;;;;12.98;11.20;;;20.30;99.90;;;;;;5085154;28;20192;-88
2021/09/26 09:23:47;;;;;;;13.20;11.90;;;20.50;99.90;;;;;;5066496;28;20315;-81
2021/09/26 09:26:14;;;;;;;13.90;12.30;;;20.60;99.90;;;;;;5066399;28;20611;-80
2021/09/26 09:28:42;;;;;;;11.85;10.65;;;20.80;99.90;;;;;;5065626;28;20208;-82
2021/09/26 09:31:11;;;;;;;13.80;12.25;;;20.90;99.90;;;;;;5066488;28;20200;-80
2021/09/26 09:33:41;;;;;;;12.00;10.80;;;21.00;99.90;;;;;;5063646;28;20198;-80
2021/09/26 09:36:19;;;;;;;11.75;10.25;;;21.10;99.90;;;;;;5046405;28;20206;-82
2021/09/26 09:38:46;;;;;;;10.57;9.52;;;21.30;99.90;;;;;;5046967;28;20316;-86
2021/09/26 09:41:13;;;;;;;11.38;9.95;;;21.30;99.90;;;;;;5047630;28;20597;-82
2021/09/26 09:43:47;;;;;;;9.27;8.38;;;21.40;99.90;;;;;;5060883;28;20216;-88
2021/09/26 09:46:29;;;;;;;11.50;10.30;;;21.40;99.90;;;;;;5062328;28;20201;-83
2021/09/26 09:49:09;;;;;;;14.32;12.88;;;21.40;99.90;;;;;;5047347;28;20300;-89
2021/09/26 09:51:38;;;;;;;10.82;9.25;;;21.40;99.90;;;;;;5048940;28;20220;-77
2021/09/26 09:54:07;;;;;;;10.70;9.63;;;21.50;99.90;;;;;;5065558;28;20207;-81
2021/09/26 09:56:42;;;;;;;11.43;10.27;;;21.50;99.90;;;;;;5066250;28;20189;-81
2021/09/26 09:59:09;;;;;;;12.70;11.45;;;21.70;99.90;;;;;;5065976;28;20192;-83
2021/09/26 10:01:39;;;;;;;13.25;11.85;;;21.70;99.90;;;;;;5054897;28;20602;-84
2021/09/26 10:04:07;;;;;;;15.15;13.57;;;21.90;99.90;;;;;;5046004;28;20773;-85
2021/09/26 10:06:37;;;;;;;13.88;12.00;;;22.00;99.90;;;;;;5067460;28;20893;-83
2021/09/26 10:09:17;;;;;;;13.00;11.70;;;22.20;99.90;;;;;;5086200;28;20643;-80
2021/09/26 10:11:46;;;;;;;14.30;12.88;;;22.40;99.90;;;;;;5086511;28;20195;-82
2021/09/26 10:14:18;;;;;;;11.80;10.48;;;22.40;99.90;;;;;;5064040;28;20216;-86
2021/09/26 10:16:47;;;;;;;12.50;10.38;;;22.50;99.90;;;;;;5047058;28;20206;-87
2021/09/26 10:19:15;;;;;;;10.05;8.50;;;22.40;99.90;;;;;;5046637;28;20201;-82
2021/09/26 10:21:42;;;;;;;11.45;8.90;;;22.50;99.90;;;;;;5048418;28;20201;-79
2021/09/26 10:24:09;;;;;;;16.17;12.27;;;22.70;99.90;;;;;;5045897;28;20218;-82
2021/09/26 10:26:40;;;;;;;12.38;9.20;;;22.90;99.90;;;;;;5056395;28;20897;-81
2021/09/26 10:29:09;;;;;;;9.77;8.77;;;23.00;99.90;;;;;;5067100;28;20201;-79
2021/09/26 10:31:38;;;;;;;9.63;8.63;;;23.10;99.90;;;;;;5066623;28;20213;-85
2021/09/26 10:34:07;;;;;;;9.27;7.97;;;23.20;99.90;;;;;;5066975;28;20194;-88
2021/09/26 10:36:36;;;;;;;11.30;9.65;;;23.30;99.90;;;;;;5066732;28;20205;-82
2021/09/26 10:39:06;;;;;;;11.55;9.57;;;23.20;99.90;;;;;;5053135;28;20315;-84
2021/09/26 10:41:33;;;;;;;11.23;9.93;;;23.30;99.90;;;;;;5048507;28;20206;-88
2021/09/26 10:44:23;;;;;;;9.43;8.50;;;23.40;99.90;;;;;;5049840;28;20209;-86
2021/09/26 10:47:15;;;;;;;11.18;9.65;;;23.60;99.90;;;;;;5049831;28;20202;-83
2021/09/26 10:49:46;;;;;;;12.77;11.15;;;23.80;99.90;;;;;;5050707;28;20236;-92
2021/09/26 10:52:31;;;;;;;12.48;10.27;;;24.00;99.90;;;;;;5064727;28;20312;-77
2021/09/26 10:55:16;;;;;;;9.27;8.07;;;24.10;99.90;;;;;;5064339;28;20204;-80
2021/09/26 10:57:45;;;;;;;13.13;11.55;;;24.10;99.90;;;;;;5063251;28;20290;-85
2021/09/26 11:00:15;;;;;;;10.85;8.95;;;24.00;99.90;;;;;;5045807;28;20206;-80
2021/09/26 11:02:48;;;;;;;10.32;9.30;;;24.00;99.90;;;;;;5057374;22;20531;-79
2021/09/26 11:05:36;;;;;;;10.38;9.25;;;24.10;99.90;;;;;;5064408;28;20516;-80
2021/09/26 11:08:04;;;;;;;12.55;11.25;;;24.30;99.90;;;;;;5066996;28;20189;-84
2021/09/26 11:10:37;;;;;;;14.10;10.90;;;24.40;99.90;;;;;;5064140;28;20217;-81
2021/09/26 11:13:12;;;;;;;12.32;11.02;;;24.40;99.90;;;;;;5044638;28;20201;-78
2021/09/26 11:16:14;;;;;;;12.23;11.13;;;24.40;99.90;;;;;;5045465;28;20224;-84
2021/09/26 11:18:56;;;;;;;10.35;9.07;;;24.50;99.90;;;;;;5045110;28;20228;-79
2021/09/26 11:22:02;;;;;;;14.27;11.20;;;24.50;99.90;;;;;;5060842;28;20231;-79
2021/09/26 11:24:42;;;;;;;12.07;9.88;;;24.50;99.90;;;;;;5045714;28;20230;-79
2021/09/26 11:27:21;;;;;;;9.50;8.18;;;24.60;99.90;;;;;;5044578;28;20680;-80
2021/09/26 11:30:11;;;;;;;8.43;7.55;;;24.70;99.90;;;;;;5045885;28;20284;-83
2021/09/26 11:32:39;;;;;;;10.07;9.07;;;25.00;99.90;;;;;;5050742;28;20216;-83
2021/09/26 11:35:08;;;;;;;11.13;8.43;;;25.10;99.90;;;;;;5064332;28;20198;-84
2021/09/26 11:37:58;;;;;;;10.65;8.40;;;25.20;99.90;;;;;;5066142;28;20229;-84
2021/09/26 11:40:58;;;;;;;6.82;6.15;;;25.30;99.90;;;;;;5077902;28;20222;-85
2021/09/26 11:43:27;;;;;;;9.35;7.25;;;25.50;99.90;;;;;;5088908;28;20212;-85
2021/09/26 11:45:57;;;;;;;7.38;6.18;;;25.50;99.90;;;;;;5089642;28;20204;-82
2021/09/26 11:48:36;;;;;;;9.73;7.72;;;25.50;99.90;;;;;;5089308;28;20197;-83
2021/09/26 11:51:09;;;;;;;7.95;6.40;;;25.40;99.90;;;;;;5090979;28;20204;-86
2021/09/26 11:53:36;;;;;;;8.35;6.93;;;25.30;99.90;;;;;;5050605;28;20206;-84
2021/09/26 11:56:14;;;;;;;12.85;10.38;;;25.30;99.90;;;;;;5049386;28;20208;-80
2021/09/26 11:58:41;;;;;;;11.85;10.55;;;25.20;99.90;;;;;;5058160;28;20229;-83
2021/09/26 12:01:08;;;;;;;11.48;9.73;;;25.20;99.90;;;;;;5069836;28;20201;-82
2021/09/26 12:03:36;;;;;;;9.27;7.93;;;25.30;99.90;;;;;;5060590;28;20237;-82
2021/09/26 12:06:03;;;;;;;12.55;9.25;;;25.40;99.90;;;;;;5048594;28;20943;-81
2021/09/26 12:08:37;;;;;;;12.38;10.90;;;25.50;99.90;;;;;;5047221;28;20201;-80
2021/09/26 12:11:08;;;;;;;12.07;10.38;;;25.50;99.90;;;;;;5046140;28;20487;-82
2021/09/26 12:13:49;;;;;;;10.23;9.23;;;25.50;99.90;;;;;;5046757;28;20214;-81
2021/09/26 12:16:17;;;;;;;10.75;9.70;;;25.50;99.90;;;;;;5046500;28;20191;-81
2021/09/26 12:18:51;;;;;;;13.63;12.23;;;25.60;99.90;;;;;;5045977;28;20645;-82
2021/09/26 12:21:18;;;;;;;12.55;10.10;;;25.50;99.90;;;;;;5046578;28;20198;-80
2021/09/26 12:23:50;;;;;;;11.00;9.98;;;25.50;99.90;;;;;;5046048;28;20230;-84
2021/09/26 12:26:23;;;;;;;15.10;11.82;;;25.50;99.90;;;;;;5046422;28;20198;-79
2021/09/26 12:29:11;;;;;;;13.25;10.48;;;25.50;99.90;;;;;;5046669;28;20205;-82
2021/09/26 12:31:39;;;;;;;11.18;9.63;;;25.50;99.90;;;;;;5044820;28;20202;-79
2021/09/26 12:34:09;;;;;;;8.93;7.97;;;25.50;99.90;;;;;;5046642;28;20292;-81
2021/09/26 12:36:39;;;;;;;9.23;8.02;;;25.40;99.90;;;;;;5045943;28;20363;-81
2021/09/26 12:39:18;;;;;;;10.52;8.82;;;25.40;99.90;;;;;;5045434;28;20222;-80
2021/09/26 12:41:51;;;;;;;9.95;7.68;;;25.40;99.90;;;;;;5046688;28;20198;-81
2021/09/26 12:44:31;;;;;;;8.57;7.10;;;25.30;99.90;;;;;;5044988;28;20202;-81
2021/09/26 12:47:00;;;;;;;8.70;7.50;;;25.30;99.90;;;;;;5062545;28;20213;-82
2021/09/26 12:49:28;;;;;;;8.88;6.63;;;25.30;99.90;;;;;;5066206;28;20197;-79
2021/09/26 12:51:58;;;;;;;7.63;6.88;;;25.20;99.90;;;;;;5065942;28;20208;-81